Time;durP1;ratioP1;P1;durP2;ratioP2;P2;SDS_P1;SDS_P2;PMS_P1;PMS_P2;Temp;Humidity;BMP_temperature;BMP_pressure;BME280_temperature;BME280_humidity;BME280_pressure;Samples;Min_cycle;Max_cycle;Signal;HPM_P1;HPM_P2
2023/04/27 00:01:11;;;;;;;12.20;5.60;;;;;;;9.25;79.19;100927.34;8382121;28;20045;-61
2023/04/27 00:05:12;;;;;;;11.07;5.22;;;;;;;9.06;76.78;100922.53;8376849;28;20147;-61
2023/04/27 00:09:12;;;;;;;11.27;5.72;;;;;;;9.10;74.57;100925.84;8377274;28;20103;-60
2023/04/27 00:13:13;;;;;;;8.70;5.38;;;;;;;9.03;75.05;100921.94;8377895;28;20040;-60
2023/04/27 00:17:13;;;;;;;21.52;5.40;;;;;;;9.11;72.13;100930.25;8377183;28;20071;-61
2023/04/27 00:21:14;;;;;;;12.35;5.53;;;;;;;9.26;73.31;100934.44;8376790;28;20111;-61
2023/04/27 00:25:14;;;;;;;10.13;5.15;;;;;;;9.22;75.71;100932.97;8359178;28;20028;-61
2023/04/27 00:29:15;;;;;;;13.18;6.18;;;;;;;9.12;79.02;100932.00;8377840;28;20054;-60
2023/04/27 00:33:16;;;;;;;9.10;5.55;;;;;;;8.96;81.61;100931.47;8357965;28;20418;-60
2023/04/27 00:37:17;;;;;;;13.20;5.80;;;;;;;8.88;82.62;100931.22;8342904;28;20041;-61
2023/04/27 00:41:19;;;;;;;9.75;5.28;;;;;;;8.80;79.24;100925.56;8369757;28;20106;-60
2023/04/27 00:45:21;;;;;;;9.57;5.57;;;;;;;8.76;78.44;100924.09;8373653;28;20116;-61
2023/04/27 00:49:23;;;;;;;14.95;5.35;;;;;;;8.68;79.73;100921.13;8374981;28;20258;-61
2023/04/27 00:53:24;;;;;;;13.15;5.47;;;;;;;8.74;80.93;100921.53;8370916;28;20033;-61
2023/04/27 00:57:24;;;;;;;9.70;5.65;;;;;;;8.65;77.73;100919.53;8375740;28;20037;-60
2023/04/27 01:01:25;;;;;;;11.52;6.47;;;;;;;8.81;75.66;100916.53;8375131;28;20040;-60
2023/04/27 01:05:26;;;;;;;9.55;5.80;;;;;;;8.81;76.04;100924.59;8375518;28;20090;-61
2023/04/27 01:09:26;;;;;;;9.88;5.32;;;;;;;8.69;76.67;100925.56;8374332;28;20446;-58
2023/04/27 01:13:26;;;;;;;14.98;6.13;;;;;;;8.61;76.28;100922.59;8373252;28;20043;-57
2023/04/27 01:17:28;;;;;;;10.90;6.22;;;;;;;8.60;75.30;100928.97;8374976;28;20048;-57
2023/04/27 01:21:29;;;;;;;13.10;6.65;;;;;;;8.57;75.09;100926.50;8373274;28;20037;-57
2023/04/27 01:25:32;;;;;;;13.20;6.25;;;;;;;8.55;74.09;100928.44;8373892;28;20533;-58
2023/04/27 01:29:36;;;;;;;12.33;6.30;;;;;;;8.55;75.16;100920.34;8371780;28;20040;-57
2023/04/27 01:33:37;;;;;;;15.65;6.57;;;;;;;8.44;74.02;100917.63;8375076;28;20036;-57
2023/04/27 01:37:37;;;;;;;12.80;6.72;;;;;;;8.25;76.04;100918.19;8373037;28;20415;-62
2023/04/27 01:41:38;;;;;;;14.88;7.10;;;;;;;7.96;80.99;100922.16;8373816;28;20059;-62
2023/04/27 01:45:38;;;;;;;13.45;6.68;;;;;;;7.66;81.74;100930.66;8374143;28;20040;-61
2023/04/27 01:49:39;;;;;;;13.15;7.45;;;;;;;7.58;82.17;100933.06;8372412;28;20040;-62
2023/04/27 01:53:40;;;;;;;15.35;7.32;;;;;;;7.55;83.95;100927.91;8373347;28;20047;-61
2023/04/27 01:57:41;;;;;;;8.93;6.95;;;;;;;7.22;84.92;100930.31;8372821;28;20041;-62
2023/04/27 02:01:41;;;;;;;11.00;8.05;;;;;;;6.97;87.86;100924.09;8372753;28;20052;-62
2023/04/27 02:05:42;;;;;;;13.68;7.05;;;;;;;6.96;87.42;100928.66;8373851;28;20389;-61
2023/04/27 02:09:43;;;;;;;11.98;7.50;;;;;;;7.01;87.70;100931.84;8373451;28;20410;-61
2023/04/27 02:13:45;;;;;;;14.85;8.13;;;;;;;7.17;83.52;100937.84;8373283;28;20044;-61
2023/04/27 02:17:46;;;;;;;14.45;7.43;;;;;;;7.40;80.67;100930.84;8373578;28;20048;-61
2023/04/27 02:21:47;;;;;;;20.50;7.70;;;;;;;7.63;78.80;100930.88;8373011;28;20464;-61
2023/04/27 02:25:47;;;;;;;17.80;8.75;;;;;;;7.68;77.38;100931.41;8372046;28;20041;-61
2023/04/27 02:29:48;;;;;;;16.98;8.82;;;;;;;7.63;77.91;100936.25;8372768;28;20268;-62
2023/04/27 02:33:48;;;;;;;15.20;8.05;;;;;;;7.60;77.70;100936.47;8372714;28;20106;-61
2023/04/27 02:37:50;;;;;;;17.20;9.05;;;;;;;7.54;78.07;100936.94;8372817;28;20043;-58
2023/04/27 02:41:50;;;;;;;15.25;8.38;;;;;;;7.43;78.54;100934.19;8372884;28;20033;-58
2023/04/27 02:45:51;;;;;;;15.27;8.23;;;;;;;7.33;78.36;100938.50;8372479;28;20033;-58
2023/04/27 02:49:52;;;;;;;15.02;8.30;;;;;;;7.30;78.57;100927.97;8372501;28;20527;-57
2023/04/27 02:53:53;;;;;;;15.38;8.43;;;;;;;7.25;78.61;100919.34;8372584;28;20519;-58
2023/04/27 02:57:53;;;;;;;13.88;7.82;;;;;;;7.20;78.33;100915.28;8372861;28;20033;-58
2023/04/27 03:01:53;;;;;;;18.00;8.68;;;;;;;7.13;78.89;100914.84;8372059;28;20040;-58
2023/04/27 03:05:54;;;;;;;21.92;9.63;;;;;;;7.02;79.42;100917.44;8372284;28;20033;-57
2023/04/27 03:09:54;;;;;;;14.82;9.00;;;;;;;6.99;79.32;100912.31;8369082;28;20381;-58
2023/04/27 03:13:55;;;;;;;15.38;9.02;;;;;;;6.97;79.54;100924.09;8348488;28;20083;-59
2023/04/27 03:17:56;;;;;;;19.27;9.10;;;;;;;6.91;80.26;100922.72;8338461;28;20112;-58
2023/04/27 03:21:56;;;;;;;17.80;8.85;;;;;;;6.88;80.14;100927.44;8370115;28;20082;-58
2023/04/27 03:25:57;;;;;;;15.93;9.02;;;;;;;6.86;80.31;100932.06;8371597;28;20025;-58
2023/04/27 03:29:57;;;;;;;14.35;8.65;;;;;;;6.77;80.58;100933.56;8370431;28;20033;-58
2023/04/27 03:33:58;;;;;;;21.67;8.88;;;;;;;6.67;81.18;100928.91;8369508;28;20033;-58
2023/04/27 03:37:58;;;;;;;18.88;7.93;;;;;;;6.61;81.26;100916.78;8375230;28;20439;-59
2023/04/27 03:41:59;;;;;;;17.38;9.23;;;;;;;6.60;81.35;100925.81;8376970;28;20108;-58
2023/04/27 03:45:59;;;;;;;18.27;8.82;;;;;;;6.49;82.19;100920.31;8380354;28;20048;-62
2023/04/27 03:50:00;;;;;;;19.17;8.95;;;;;;;6.48;81.96;100923.97;8377725;28;20055;-62
2023/04/27 03:54:00;;;;;;;18.05;9.48;;;;;;;6.40;83.27;100923.63;8377535;28;20060;-61
2023/04/27 03:58:02;;;;;;;19.45;10.35;;;;;;;6.04;85.24;100937.69;8376438;28;20033;-62
2023/04/27 04:02:04;;;;;;;19.60;9.45;;;;;;;6.31;83.65;100945.72;8377680;28;20095;-62
2023/04/27 04:06:05;;;;;;;19.77;9.18;;;;;;;6.33;83.88;100946.50;8378841;28;20093;-62
2023/04/27 04:10:07;;;;;;;23.05;9.50;;;;;;;6.30;83.42;100944.00;8375493;28;20086;-62
2023/04/27 04:14:07;;;;;;;20.20;9.60;;;;;;;6.17;84.35;100942.25;8360018;28;20461;-63
2023/04/27 04:18:08;;;;;;;21.52;10.13;;;;;;;6.18;84.54;100950.19;8353233;28;20041;-63
2023/04/27 04:22:08;;;;;;;25.60;8.40;;;;;;;6.26;83.84;100955.94;8377313;28;20044;-62
2023/04/27 04:26:09;;;;;;;20.73;9.57;;;;;;;6.26;83.53;100961.31;8376129;28;20080;-62
2023/04/27 04:30:10;;;;;;;21.90;9.93;;;;;;;6.34;84.02;100956.25;8377164;28;20062;-62
2023/04/27 04:34:11;;;;;;;17.88;8.90;;;;;;;6.14;84.84;100970.16;8393726;28;20440;-63
2023/04/27 04:38:12;;;;;;;18.27;10.10;;;;;;;5.65;87.28;100966.25;8425668;28;20490;-61
2023/04/27 04:42:13;;;;;;;21.88;9.98;;;;;;;5.73;86.60;100974.63;8367362;28;20033;-63
2023/04/27 04:46:15;;;;;;;23.25;9.55;;;;;;;5.88;86.21;100976.38;8346323;28;20033;-62
2023/04/27 04:50:16;;;;;;;20.38;9.90;;;;;;;6.01;86.43;100980.00;8375329;28;20115;-62
2023/04/27 04:54:16;;;;;;;22.02;10.85;;;;;;;5.72;89.48;100975.63;8375328;28;20420;-62
2023/04/27 04:58:16;;;;;;;19.55;10.35;;;;;;;5.81;90.39;100978.59;8376309;28;20036;-62
2023/04/27 05:02:17;;;;;;;23.17;10.40;;;;;;;5.88;90.82;100973.69;8375962;28;20082;-60
2023/04/27 05:06:18;;;;;;;17.88;9.13;;;;;;;5.90;91.79;100972.66;8376145;28;20039;-59
2023/04/27 05:10:18;;;;;;;23.50;10.10;;;;;;;5.99;93.15;100981.91;8375576;28;20115;-63
2023/04/27 05:14:19;;;;;;;14.32;9.07;;;;;;;6.29;91.74;100979.88;8375326;28;20090;-62
2023/04/27 05:18:20;;;;;;;15.07;9.40;;;;;;;6.71;87.86;100982.34;8375146;28;20487;-63
2023/04/27 05:22:20;;;;;;;14.88;8.90;;;;;;;6.69;90.14;100997.72;8373932;28;20037;-62
2023/04/27 05:26:20;;;;;;;19.00;10.35;;;;;;;6.87;91.31;100988.41;8374730;28;20043;-62
2023/04/27 05:30:21;;;;;;;21.23;10.55;;;;;;;7.20;83.80;101002.16;8375615;28;20067;-62
2023/04/27 05:34:21;;;;;;;19.83;10.13;;;;;;;7.58;81.90;101005.72;8369922;28;20044;-63
2023/04/27 05:38:22;;;;;;;25.05;9.88;;;;;;;7.94;78.68;100999.50;8354979;28;20091;-60
2023/04/27 05:42:22;;;;;;;22.30;10.35;;;;;;;8.04;78.80;100996.00;8364148;28;20503;-61
2023/04/27 05:46:23;;;;;;;20.25;9.43;;;;;;;8.17;78.62;101003.19;8352762;28;20048;-60
2023/04/27 05:50:23;;;;;;;17.60;8.85;;;;;;;8.30;77.56;101007.59;8341633;28;20131;-60
2023/04/27 05:54:24;;;;;;;16.50;8.93;;;;;;;8.45;77.69;101017.19;8368951;28;20515;-60
2023/04/27 05:58:25;;;;;;;16.52;8.75;;;;;;;8.72;76.30;101019.66;8341042;28;20040;-60
2023/04/27 06:02:25;;;;;;;17.63;9.40;;;;;;;8.80;76.35;101006.44;8340284;28;20040;-62
2023/04/27 06:06:27;;;;;;;20.65;9.45;;;;;;;8.69;75.09;101009.13;8340841;28;20037;-61
2023/04/27 06:10:27;;;;;;;21.10;9.13;;;;;;;8.83;74.94;101011.59;8340495;28;20040;-62
2023/04/27 06:14:28;;;;;;;16.17;8.65;;;;;;;8.96;74.73;101012.38;8346245;28;20036;-61
2023/04/27 06:18:28;;;;;;;18.23;9.27;;;;;;;9.27;74.21;101014.41;8375858;28;20049;-61
2023/04/27 06:22:28;;;;;;;17.05;9.40;;;;;;;9.25;72.93;101013.66;8342990;28;20048;-59
2023/04/27 06:26:29;;;;;;;22.70;10.13;;;;;;;9.49;73.80;101019.84;8394947;28;20435;-59
2023/04/27 06:30:29;;;;;;;18.90;9.75;;;;;;;9.45;71.53;101021.03;8369382;28;20501;-59
2023/04/27 06:34:30;;;;;;;17.63;9.38;;;;;;;9.43;72.19;101020.31;8373230;28;20037;-59
2023/04/27 06:38:30;;;;;;;24.15;10.27;;;;;;;10.10;73.45;101030.16;8373015;28;20448;-59
2023/04/27 06:42:31;;;;;;;21.65;11.15;;;;;;;10.10;71.10;101024.75;8371498;28;20138;-59
2023/04/27 06:46:31;;;;;;;20.63;10.27;;;;;;;10.30;70.33;101021.28;8373293;28;20044;-60
2023/04/27 06:50:32;;;;;;;23.42;10.27;;;;;;;10.34;69.44;101017.31;8372674;28;20146;-61
2023/04/27 06:54:32;;;;;;;22.05;10.05;;;;;;;10.58;68.96;101017.97;8372871;28;20227;-59
2023/04/27 06:58:33;;;;;;;16.88;9.68;;;;;;;10.76;68.34;101019.16;8394606;28;20055;-59
2023/04/27 07:02:33;;;;;;;20.38;10.27;;;;;;;10.91;67.04;101012.44;8372875;28;20452;-61
2023/04/27 07:06:34;;;;;;;23.63;11.13;;;;;;;10.93;68.28;101018.59;8372833;28;20033;-61
2023/04/27 07:10:34;;;;;;;23.48;10.10;;;;;;;11.11;66.37;101017.00;8372643;28;20086;-62
2023/04/27 07:14:35;;;;;;;17.35;10.23;;;;;;;11.39;65.74;101013.63;8379318;28;20067;-62
2023/04/27 07:18:35;;;;;;;19.98;10.85;;;;;;;11.14;65.38;101008.63;8378846;28;20143;-62
2023/04/27 07:22:36;;;;;;;18.80;10.55;;;;;;;11.39;66.00;101015.47;8379259;28;20048;-62
2023/04/27 07:26:36;;;;;;;17.85;10.32;;;;;;;11.41;65.28;101008.91;8378677;28;20047;-59
2023/04/27 07:30:37;;;;;;;19.30;10.48;;;;;;;11.60;65.58;101006.34;8378625;28;20387;-59
2023/04/27 07:34:38;;;;;;;18.70;10.38;;;;;;;12.09;63.28;101007.38;8378666;28;20051;-59
2023/04/27 07:38:38;;;;;;;18.65;10.25;;;;;;;12.00;62.65;101009.09;8378433;28;20111;-60
2023/04/27 07:42:40;;;;;;;23.15;11.52;;;;;;;12.25;63.46;101007.72;8378474;28;20036;-59
2023/04/27 07:46:41;;;;;;;22.73;10.57;;;;;;;12.40;63.92;101000.91;8376992;28;20085;-59
2023/04/27 07:50:41;;;;;;;22.25;11.05;;;;;;;12.60;60.86;100997.22;8377956;28;20560;-59
2023/04/27 07:54:42;;;;;;;22.73;11.18;;;;;;;12.61;60.03;100996.22;8376327;28;20043;-60
2023/04/27 07:58:42;;;;;;;23.60;12.07;;;;;;;12.48;57.93;100988.38;8377129;28;20045;-60
2023/04/27 08:02:43;;;;;;;21.85;11.48;;;;;;;12.70;57.44;100998.06;8377320;28;20041;-60
2023/04/27 08:06:44;;;;;;;22.13;12.10;;;;;;;12.96;55.99;101007.38;8377402;28;20387;-61
2023/04/27 08:10:45;;;;;;;29.08;13.75;;;;;;;12.82;57.67;100995.09;8376480;28;20029;-60
2023/04/27 08:14:46;;;;;;;26.00;13.70;;;;;;;12.90;55.79;100988.94;8377894;28;20040;-61
2023/04/27 08:18:46;;;;;;;26.30;13.13;;;;;;;13.12;57.17;100983.22;8376852;28;20446;-61
2023/04/27 08:22:50;;;;;;;22.52;11.85;;;;;;;13.24;55.77;100982.06;8376195;28;20036;-61
2023/04/27 08:26:50;;;;;;;17.38;10.55;;;;;;;13.10;54.24;100979.78;8376631;28;20467;-61
2023/04/27 08:30:50;;;;;;;20.27;10.45;;;;;;;13.27;54.94;100979.91;8376760;28;20067;-61
2023/04/27 08:34:51;;;;;;;23.52;12.50;;;;;;;13.58;54.98;100981.38;8376448;28;20060;-61
2023/04/27 08:38:51;;;;;;;24.35;12.15;;;;;;;13.78;54.44;100972.16;8376441;28;20559;-61
2023/04/27 08:42:55;;;;;;;18.60;10.52;;;;;;;13.85;54.31;100972.41;8376596;28;20102;-62
2023/04/27 08:46:55;;;;;;;21.00;12.60;;;;;;;14.02;54.25;100978.88;8376146;28;20043;-61
2023/04/27 08:50:59;;;;;;;23.60;12.98;;;;;;;13.80;54.89;100974.72;8374485;28;20036;-62
2023/04/27 08:55:00;;;;;;;20.57;11.73;;;;;;;13.82;55.22;100978.16;8376431;28;20033;-62
2023/04/27 08:59:03;;;;;;;20.13;10.77;;;;;;;14.20;55.62;100972.50;8375728;28;20048;-62
2023/04/27 09:03:03;;;;;;;23.80;11.57;;;;;;;14.46;51.86;100978.09;8375156;28;20033;-61
2023/04/27 09:07:15;;;;;;;24.63;11.70;;;;;;;14.38;52.35;100973.41;8363745;28;20040;-62
2023/04/27 09:11:44;;;;;;;25.70;10.75;;;;;;;14.71;53.66;100966.41;8371664;28;20449;-61
2023/04/27 09:15:47;;;;;;;19.95;9.75;;;;;;;14.55;53.10;100961.66;8373559;28;20443;-61
2023/04/27 09:19:48;;;;;;;17.10;10.57;;;;;;;14.31;50.87;100968.72;8375002;28;20033;-62
2023/04/27 09:23:49;;;;;;;19.05;9.43;;;;;;;14.50;52.38;100961.28;8375533;28;20279;-61
2023/04/27 09:27:49;;;;;;;17.65;10.63;;;;;;;14.71;51.40;100950.97;8375152;28;20090;-61
2023/04/27 09:31:50;;;;;;;20.00;11.02;;;;;;;14.42;53.00;100961.19;8351024;28;20091;-61
2023/04/27 09:35:51;;;;;;;20.60;10.52;;;;;;;14.73;51.01;100957.09;8351150;28;20090;-61
2023/04/27 09:39:52;;;;;;;20.63;11.93;;;;;;;15.07;50.12;100947.16;8373317;28;20042;-62
2023/04/27 09:43:54;;;;;;;26.38;11.65;;;;;;;15.65;50.08;100942.78;8373457;28;20450;-61
2023/04/27 09:47:54;;;;;;;22.58;10.18;;;;;;;17.27;47.70;100942.94;8375183;28;20041;-64
2023/04/27 09:51:57;;;;;;;22.23;13.05;;;;;;;17.66;48.36;100947.69;8372999;28;20139;-62
2023/04/27 09:56:27;;;;;;;20.85;11.73;;;;;;;17.90;47.24;100942.13;8372554;28;20040;-61
2023/04/27 10:00:46;;;;;;;25.15;14.38;;;;;;;18.11;46.52;100935.00;8389419;28;20085;-61
2023/04/27 10:05:15;;;;;;;22.00;13.25;;;;;;;18.08;46.83;100929.88;8362141;28;20509;-61
2023/04/27 10:09:22;;;;;;;25.25;14.85;;;;;;;17.59;47.33;100936.56;8373130;28;20043;-61
2023/04/27 10:13:25;;;;;;;23.08;14.93;;;;;;;17.91;45.89;100931.00;8373673;28;20047;-61
2023/04/27 10:17:31;;;;;;;21.40;14.18;;;;;;;18.16;45.46;100931.72;8372963;28;20529;-61
2023/04/27 10:21:31;;;;;;;23.63;14.90;;;;;;;18.14;44.82;100929.16;8372433;28;20134;-61
2023/04/27 10:25:40;;;;;;;23.67;14.40;;;;;;;18.09;45.23;100917.91;8373010;28;20120;-61
2023/04/27 10:29:45;;;;;;;23.35;14.40;;;;;;;18.20;46.21;100912.03;8372550;28;20584;-61
2023/04/27 10:33:46;;;;;;;25.02;15.50;;;;;;;18.80;45.43;100907.53;8389460;28;20056;-61
2023/04/27 10:37:47;;;;;;;22.38;13.80;;;;;;;20.45;42.57;100898.75;8388512;28;20037;-61
2023/04/27 10:41:51;;;;;;;25.95;15.57;;;;;;;19.52;43.89;100887.63;8388645;28;20115;-61
2023/04/27 10:45:51;;;;;;;24.20;15.90;;;;;;;19.24;43.46;100892.03;8388870;28;20032;-61
2023/04/27 10:49:53;;;;;;;33.90;16.80;;;;;;;19.11;45.91;100896.44;8388541;28;20043;-61
2023/04/27 10:53:54;;;;;;;25.60;14.80;;;;;;;20.34;43.15;100886.38;8389276;28;20461;-61
2023/04/27 10:57:56;;;;;;;26.15;15.02;;;;;;;20.13;42.30;100891.00;8388197;28;20049;-61
2023/04/27 11:01:56;;;;;;;26.88;15.75;;;;;;;19.28;43.60;100885.16;8388429;28;20170;-61
2023/04/27 11:06:00;;;;;;;27.13;14.73;;;;;;;19.73;42.94;100881.38;8362953;28;20042;-61
2023/04/27 11:10:00;;;;;;;21.70;13.43;;;;;;;19.89;42.80;100891.28;8371091;28;20037;-61
2023/04/27 11:14:02;;;;;;;27.08;15.55;;;;;;;19.42;43.24;100887.06;8356204;28;20527;-61
2023/04/27 11:18:04;;;;;;;26.23;15.20;;;;;;;19.63;43.29;100879.94;8354076;28;20049;-61
2023/04/27 11:22:05;;;;;;;29.95;15.15;;;;;;;20.27;43.37;100873.63;8386414;28;20042;-61
2023/04/27 11:26:25;;;;;;;24.98;14.57;;;;;;;19.61;42.48;100873.81;8388301;28;20037;-62
2023/04/27 11:30:26;;;;;;;24.33;16.48;;;;;;;19.48;43.68;100861.63;8369711;28;20062;-61
2023/04/27 11:34:26;;;;;;;20.58;14.18;;;;;;;20.38;42.39;100859.38;8371998;28;20033;-61
2023/04/27 11:38:32;;;;;;;23.98;14.85;;;;;;;20.01;43.17;100845.84;8370218;28;20515;-61
2023/04/27 11:42:33;;;;;;;23.05;14.88;;;;;;;20.47;42.13;100853.59;8370563;28;20515;-61
2023/04/27 11:46:35;;;;;;;25.23;15.23;;;;;;;20.44;42.76;100842.97;8371359;28;20580;-61
2023/04/27 11:50:35;;;;;;;28.60;14.32;;;;;;;21.35;44.32;100840.16;8369906;28;20059;-61
2023/04/27 11:54:36;;;;;;;28.17;14.02;;;;;;;20.73;44.27;100837.31;8368272;28;20546;-59
2023/04/27 11:58:38;;;;;;;29.58;15.43;;;;;;;20.45;43.95;100832.81;8368315;28;20119;-59
2023/04/27 12:02:40;;;;;;;24.73;15.68;;;;;;;18.86;45.20;100832.81;8372838;28;20178;-59
2023/04/27 12:06:40;;;;;;;25.98;16.25;;;;;;;17.80;46.72;100835.63;8375173;28;20506;-59
2023/04/27 12:10:41;;;;;;;31.17;16.30;;;;;;;16.99;47.18;100842.41;8373536;28;20402;-59
2023/04/27 12:14:41;;;;;;;27.65;16.67;;;;;;;17.30;47.08;100829.69;8371148;28;20041;-59
2023/04/27 12:18:42;;;;;;;29.15;14.30;;;;;;;17.86;46.58;100826.72;8374150;28;20110;-59
2023/04/27 12:22:42;;;;;;;21.70;12.35;;;;;;;17.71;47.00;100828.50;8374892;28;20032;-60
2023/04/27 12:26:42;;;;;;;21.50;13.43;;;;;;;18.06;48.84;100827.13;8374241;28;20066;-59
2023/04/27 12:30:43;;;;;;;22.30;13.15;;;;;;;17.51;48.31;100827.25;8373249;28;20040;-59
2023/04/27 12:34:45;;;;;;;20.52;12.25;;;;;;;17.42;46.87;100815.44;8374515;28;20052;-59
2023/04/27 12:38:46;;;;;;;21.80;11.52;;;;;;;17.91;48.82;100816.09;8372958;28;20150;-59
2023/04/27 12:42:46;;;;;;;22.40;11.85;;;;;;;17.67;47.24;100816.22;8374074;28;20037;-59
2023/04/27 12:46:47;;;;;;;21.17;11.27;;;;;;;17.21;46.89;100808.88;8373267;28;20048;-59
2023/04/27 12:50:47;;;;;;;23.80;12.15;;;;;;;17.51;51.01;100813.59;8373808;28;20431;-59
2023/04/27 12:54:48;;;;;;;24.50;9.60;;;;;;;17.50;46.68;100804.50;8373037;28;20471;-59
2023/04/27 12:58:49;;;;;;;14.40;10.13;;;;;;;17.60;46.22;100801.56;8371496;28;20040;-59
2023/04/27 13:02:50;;;;;;;17.13;9.40;;;;;;;17.90;45.10;100794.38;8373032;28;20033;-59
2023/04/27 13:06:51;;;;;;;13.68;8.80;;;;;;;18.65;45.62;100807.16;8369190;28;20045;-59
2023/04/27 13:10:52;;;;;;;14.05;9.60;;;;;;;17.74;45.61;100806.28;8372986;28;20056;-59
2023/04/27 13:14:52;;;;;;;12.25;8.45;;;;;;;17.81;44.32;100801.78;8371258;28;20139;-59
2023/04/27 13:18:54;;;;;;;19.60;9.90;;;;;;;17.80;45.08;100805.56;8371826;28;20145;-59
2023/04/27 13:22:54;;;;;;;20.48;9.57;;;;;;;17.48;45.13;100795.63;8371991;28;20037;-59
2023/04/27 13:26:55;;;;;;;14.45;9.38;;;;;;;17.31;45.69;100793.13;8371605;28;20567;-59
2023/04/27 13:30:55;;;;;;;15.27;9.75;;;;;;;17.30;46.68;100780.50;8370042;28;20499;-60
2023/04/27 13:34:56;;;;;;;21.65;10.95;;;;;;;16.87;48.29;100786.44;8371962;28;20052;-61
2023/04/27 13:38:56;;;;;;;18.75;11.30;;;;;;;17.02;49.77;100790.16;8371669;28;20040;-60
2023/04/27 13:42:57;;;;;;;20.65;12.98;;;;;;;17.09;48.73;100782.97;8362180;28;20043;-61
2023/04/27 13:46:57;;;;;;;31.40;14.82;;;;;;;17.06;49.36;100777.84;8370742;28;20041;-61
2023/04/27 13:50:58;;;;;;;23.15;14.63;;;;;;;16.74;49.05;100772.50;8371323;28;20044;-61
2023/04/27 13:54:59;;;;;;;22.63;13.88;;;;;;;16.90;49.94;100769.72;8372052;28;20505;-60
2023/04/27 13:59:00;;;;;;;22.40;13.60;;;;;;;17.29;49.03;100762.38;8361579;28;20032;-61
2023/04/27 14:03:03;;;;;;;21.88;13.13;;;;;;;16.94;48.27;100747.34;8340452;28;20504;-60
2023/04/27 14:07:03;;;;;;;22.40;13.15;;;;;;;16.89;48.41;100748.88;8338022;28;20040;-62
2023/04/27 14:11:05;;;;;;;22.70;13.18;;;;;;;16.77;48.91;100742.09;8344731;28;20141;-59
2023/04/27 14:15:06;;;;;;;17.40;10.38;;;;;;;16.74;50.53;100742.44;8338012;28;20190;-59
2023/04/27 14:19:06;;;;;;;17.85;10.77;;;;;;;16.67;50.38;100736.81;8335953;28;20033;-59
2023/04/27 14:23:07;;;;;;;19.98;10.68;;;;;;;16.96;50.38;100747.16;8369923;28;20373;-59
2023/04/27 14:27:08;;;;;;;19.52;11.27;;;;;;;16.92;49.59;100732.13;8365522;28;20111;-59
2023/04/27 14:31:08;;;;;;;19.92;10.05;;;;;;;17.20;50.10;100725.22;8370698;28;20284;-60
2023/04/27 14:35:09;;;;;;;22.00;11.32;;;;;;;17.27;50.54;100715.25;8351946;28;20278;-60
2023/04/27 14:39:09;;;;;;;16.40;10.00;;;;;;;17.30;48.42;100693.88;8357246;28;20033;-60
2023/04/27 14:43:10;;;;;;;22.02;11.43;;;;;;;17.23;48.48;100692.06;8360568;28;20044;-60
2023/04/27 14:47:10;;;;;;;20.83;11.25;;;;;;;17.19;49.07;100680.63;8336406;28;20060;-60
2023/04/27 14:51:12;;;;;;;22.85;12.80;;;;;;;17.38;49.28;100679.31;8339935;28;20439;-60
2023/04/27 14:55:14;;;;;;;19.15;11.18;;;;;;;17.67;48.96;100671.28;8381194;28;20389;-59
2023/04/27 14:59:14;;;;;;;22.50;13.00;;;;;;;17.60;49.72;100654.75;8384105;28;20036;-59
2023/04/27 15:03:15;;;;;;;22.92;12.05;;;;;;;17.56;50.13;100660.75;8382367;28;20074;-59
2023/04/27 15:07:16;;;;;;;20.42;12.68;;;;;;;17.63;48.63;100664.50;8353130;28;20037;-59
2023/04/27 15:11:16;;;;;;;17.98;11.55;;;;;;;17.62;48.58;100660.03;8416127;28;20047;-59
2023/04/27 15:15:17;;;;;;;19.23;11.95;;;;;;;17.45;48.76;100669.41;8383201;28;20538;-59
2023/04/27 15:19:17;;;;;;;24.70;13.77;;;;;;;17.29;48.68;100661.25;8382991;28;20036;-59
2023/04/27 15:23:19;;;;;;;17.85;11.23;;;;;;;17.55;51.25;100661.81;8381295;28;20529;-59
2023/04/27 15:27:19;;;;;;;25.65;13.82;;;;;;;17.22;48.88;100646.63;8384453;28;20040;-59
2023/04/27 15:31:20;;;;;;;29.83;13.75;;;;;;;17.40;49.88;100650.78;8383188;28;20044;-59
2023/04/27 15:35:20;;;;;;;32.67;13.57;;;;;;;17.28;49.75;100651.38;8403263;28;20044;-59
2023/04/27 15:39:21;;;;;;;23.52;13.27;;;;;;;17.04;49.95;100638.69;8421358;28;20101;-60
2023/04/27 15:43:21;;;;;;;23.30;12.00;;;;;;;16.94;50.25;100639.94;8341062;28;20048;-59
2023/04/27 15:47:22;;;;;;;26.90;11.85;;;;;;;16.94;51.26;100638.06;8357119;28;20455;-59
2023/04/27 15:51:23;;;;;;;14.93;9.82;;;;;;;17.20;53.02;100643.22;8372760;28;20817;-56
2023/04/27 15:55:23;;;;;;;20.20;11.48;;;;;;;17.15;50.00;100634.72;8372649;28;20052;-60
2023/04/27 15:59:23;;;;;;;23.70;11.60;;;;;;;16.95;49.12;100638.91;8372110;28;20490;-62
2023/04/27 16:03:25;;;;;;;20.20;11.38;;;;;;;16.87;49.27;100636.22;8370490;28;20055;-60
2023/04/27 16:07:25;;;;;;;26.90;11.95;;;;;;;16.79;50.12;100641.72;8373355;28;20041;-61
2023/04/27 16:11:26;;;;;;;21.15;10.98;;;;;;;16.98;48.95;100627.63;8373181;27;20064;-60
2023/04/27 16:15:26;;;;;;;23.83;11.35;;;;;;;16.88;50.04;100616.94;8360258;28;20462;-61
2023/04/27 16:19:27;;;;;;;18.42;10.55;;;;;;;16.73;50.09;100617.84;8371519;28;20071;-60
2023/04/27 16:23:27;;;;;;;19.73;9.43;;;;;;;16.81;51.98;100610.47;8394289;28;20051;-61
2023/04/27 16:27:28;;;;;;;14.38;9.90;;;;;;;16.72;49.17;100613.44;8422567;28;20451;-61
2023/04/27 16:31:29;;;;;;;21.02;10.30;;;;;;;16.79;50.13;100600.75;8421133;28;20084;-61
2023/04/27 16:35:29;;;;;;;19.55;8.60;;;;;;;16.73;49.95;100596.00;8421366;28;20040;-61
2023/04/27 16:39:30;;;;;;;22.42;9.05;;;;;;;16.80;49.62;100584.19;8419806;28;20151;-61
2023/04/27 16:43:32;;;;;;;15.82;8.50;;;;;;;16.76;50.62;100590.19;8334658;28;20033;-61
2023/04/27 16:47:32;;;;;;;15.98;8.90;;;;;;;16.87;48.21;100585.19;8338390;28;20202;-61
2023/04/27 16:51:33;;;;;;;16.70;8.05;;;;;;;16.84;47.83;100592.91;8347161;28;20047;-61
2023/04/27 16:55:34;;;;;;;15.40;8.50;;;;;;;16.70;48.22;100574.53;8364560;28;20040;-61
2023/04/27 16:59:34;;;;;;;13.48;8.00;;;;;;;16.67;48.40;100564.81;8376491;28;20040;-59
2023/04/27 17:03:35;;;;;;;17.55;7.40;;;;;;;16.69;48.76;100572.84;8372312;28;20185;-60
2023/04/27 17:07:35;;;;;;;13.95;7.00;;;;;;;16.74;49.52;100564.97;8368809;28;20049;-59
2023/04/27 17:11:36;;;;;;;12.30;7.43;;;;;;;16.56;50.38;100561.66;8364450;28;20132;-60
2023/04/27 17:15:37;;;;;;;13.85;7.53;;;;;;;16.51;50.84;100554.00;8372222;28;20083;-62
2023/04/27 17:19:37;;;;;;;16.02;7.40;;;;;;;16.59;49.74;100544.91;8367629;28;20071;-61
2023/04/27 17:23:40;;;;;;;13.38;7.40;;;;;;;16.46;49.13;100544.63;8365615;28;20407;-62
2023/04/27 17:27:40;;;;;;;17.08;7.47;;;;;;;16.37;49.52;100537.44;8366431;28;20106;-59
2023/04/27 17:31:41;;;;;;;11.07;7.30;;;;;;;16.37;48.91;100551.97;8336996;28;20037;-61
2023/04/27 17:35:43;;;;;;;14.32;7.72;;;;;;;16.28;49.13;100553.00;8336779;28;20091;-61
2023/04/27 17:39:43;;;;;;;16.60;7.18;;;;;;;16.21;49.89;100557.47;8364234;28;20162;-60
2023/04/27 17:43:44;;;;;;;17.02;7.40;;;;;;;16.18;49.80;100554.25;8384173;28;20029;-62
2023/04/27 17:47:44;;;;;;;12.45;6.47;;;;;;;16.11;51.61;100555.97;8386669;28;20051;-58
2023/04/27 17:51:45;;;;;;;16.10;6.70;;;;;;;16.08;50.37;100548.16;8376174;28;20036;-58
2023/04/27 17:55:46;;;;;;;11.50;6.65;;;;;;;16.05;50.72;100540.31;8352856;28;20060;-58
2023/04/27 17:59:47;;;;;;;17.00;7.72;;;;;;;15.96;50.75;100534.03;8364469;28;20081;-58
2023/04/27 18:03:48;;;;;;;12.82;6.90;;;;;;;15.98;51.32;100531.13;8346067;28;20037;-57
2023/04/27 18:07:48;;;;;;;16.02;7.40;;;;;;;15.96;51.93;100525.00;8355583;28;20159;-58
2023/04/27 18:11:49;;;;;;;13.20;6.55;;;;;;;15.94;51.69;100521.59;8341106;28;20224;-57
2023/04/27 18:15:50;;;;;;;15.18;6.53;;;;;;;15.92;51.23;100534.56;8365223;28;20044;-58
2023/04/27 18:19:53;;;;;;;13.07;6.45;;;;;;;15.85;51.52;100539.03;8361483;28;20108;-57
2023/04/27 18:23:54;;;;;;;12.38;6.05;;;;;;;15.83;51.68;100535.59;8340467;28;20041;-58
2023/04/27 18:27:54;;;;;;;14.40;6.22;;;;;;;15.80;52.00;100530.50;8334484;28;20124;-57